Time;durP1;ratioP1;P1;durP2;ratioP2;P2;SDS_P1;SDS_P2;PMS_P1;PMS_P2;Temp;Humidity;BMP_temperature;BMP_pressure;BME280_temperature;BME280_humidity;BME280_pressure;Samples;Min_cycle;Max_cycle;Signal;HPM_P1;HPM_P2
2023/07/10 00:01:05;;;;;;;11.10;2.50;;;20.70;99.90;;;;;;7278626;19;20184;-76
2023/07/10 00:03:32;;;;;;;7.87;2.47;;;20.80;99.90;;;;;;7275324;19;20192;-76
2023/07/10 00:05:59;;;;;;;11.27;2.43;;;20.90;99.90;;;;;;7279323;19;20189;-76
2023/07/10 00:08:25;;;;;;;5.90;2.40;;;21.10;99.90;;;;;;7299144;19;20220;-76
2023/07/10 00:10:51;;;;;;;8.63;2.50;;;21.10;99.90;;;;;;7305837;19;20193;-76
2023/07/10 00:13:21;;;;;;;6.33;2.30;;;21.20;99.90;;;;;;7284002;19;20239;-76
2023/07/10 00:15:51;;;;;;;7.10;2.77;;;21.30;99.90;;;;;;7284454;19;20190;-76
2023/07/10 00:18:19;;;;;;;8.93;2.97;;;21.30;99.90;;;;;;7284915;19;20223;-76
2023/07/10 00:20:45;;;;;;;9.17;2.40;;;21.30;99.90;;;;;;7284843;19;20249;-76
2023/07/10 00:23:16;;;;;;;10.57;2.67;;;21.30;99.90;;;;;;7283550;19;20277;-76
2023/07/10 00:25:42;;;;;;;8.27;2.90;;;21.30;99.90;;;;;;7284924;19;20222;-76
2023/07/10 00:28:18;;;;;;;5.83;2.50;;;21.30;99.90;;;;;;7284726;19;20229;-76
2023/07/10 00:30:45;;;;;;;7.80;2.50;;;21.20;99.90;;;;;;7282930;19;20196;-76
2023/07/10 00:33:12;;;;;;;7.03;2.63;;;21.10;99.90;;;;;;7284098;19;20285;-76
2023/07/10 00:35:39;;;;;;;9.20;2.37;;;21.10;99.90;;;;;;7283473;19;20199;-76
2023/07/10 00:38:34;;;;;;;8.67;2.30;;;21.10;99.90;;;;;;7282986;19;20696;-76
2023/07/10 00:41:01;;;;;;;7.13;2.60;;;20.70;99.90;;;;;;7181626;19;2005123;-76
2023/07/10 00:43:43;;;;;;;6.73;2.30;;;20.50;99.90;;;;;;7286036;19;20688;-81
2023/07/10 00:46:21;;;;;;;7.13;2.80;;;20.50;99.90;;;;;;7285295;19;20219;-81
2023/07/10 00:48:52;;;;;;;8.27;2.73;;;20.50;99.90;;;;;;7285064;19;20678;-82
2023/07/10 00:51:34;;;;;;;7.20;2.67;;;20.70;99.90;;;;;;7285657;19;20277;-81
2023/07/10 00:54:02;;;;;;;15.00;3.13;;;20.70;99.90;;;;;;7182940;19;2004740;-81
2023/07/10 00:56:38;;;;;;;9.57;3.03;;;20.80;99.90;;;;;;7283464;19;20244;-80
2023/07/10 00:59:21;;;;;;;8.53;2.80;;;20.80;99.90;;;;;;7284622;19;20188;-80
2023/07/10 01:02:21;;;;;;;7.23;2.60;;;20.70;99.90;;;;;;7283698;19;20211;-81
2023/07/10 01:04:55;;;;;;;9.43;3.03;;;20.60;99.90;;;;;;7182211;19;2004136;-81
2023/07/10 01:07:23;;;;;;;8.90;2.87;;;20.50;99.90;;;;;;7284995;19;20196;-81
2023/07/10 01:09:56;;;;;;;8.13;2.70;;;20.40;99.90;;;;;;7285321;19;20255;-80
2023/07/10 01:12:23;;;;;;;10.53;3.20;;;20.40;99.90;;;;;;7285121;19;20215;-81
2023/07/10 01:14:48;;;;;;;10.80;2.80;;;20.40;99.90;;;;;;7284559;19;20208;-81
2023/07/10 01:17:14;;;;;;;7.57;3.27;;;20.50;99.90;;;;;;7282180;19;20735;-81
2023/07/10 01:19:43;;;;;;;9.20;2.97;;;20.50;99.90;;;;;;7283768;19;20184;-82
2023/07/10 01:22:10;;;;;;;6.93;2.80;;;20.50;99.90;;;;;;7284484;19;20199;-82
2023/07/10 01:24:37;;;;;;;6.67;2.73;;;20.50;99.90;;;;;;7283231;19;20196;-82
2023/07/10 01:27:06;;;;;;;10.00;2.87;;;20.40;99.90;;;;;;7283736;19;20545;-81
2023/07/10 01:29:42;;;;;;;10.23;2.80;;;20.40;99.90;;;;;;7281821;19;20193;-81
2023/07/10 01:32:14;;;;;;;11.10;2.97;;;20.30;99.90;;;;;;7285050;19;20197;-81
2023/07/10 01:34:44;;;;;;;7.57;3.13;;;20.20;99.90;;;;;;7283716;19;20248;-81
2023/07/10 01:37:11;;;;;;;6.83;2.83;;;19.90;99.90;;;;;;7284560;19;20218;-81
2023/07/10 01:39:43;;;;;;;10.63;2.70;;;19.90;99.90;;;;;;7285077;19;20185;-81
2023/07/10 01:42:09;;;;;;;8.13;3.20;;;19.80;99.90;;;;;;7284174;19;20571;-81
2023/07/10 01:44:38;;;;;;;9.10;3.40;;;19.80;99.90;;;;;;7283056;19;20193;-81
2023/07/10 01:47:07;;;;;;;11.40;3.23;;;19.70;99.90;;;;;;7283370;19;20722;-81
2023/07/10 01:49:37;;;;;;;10.80;3.40;;;19.60;99.90;;;;;;7281887;19;20210;-81
2023/07/10 01:52:06;;;;;;;12.43;3.23;;;19.50;99.90;;;;;;7281616;19;20192;-76
2023/07/10 01:54:32;;;;;;;11.47;3.33;;;19.40;99.90;;;;;;7282501;19;20319;-76
2023/07/10 01:56:58;;;;;;;7.93;3.40;;;19.40;99.90;;;;;;7281499;19;20185;-76
2023/07/10 01:59:24;;;;;;;9.37;3.43;;;19.30;99.90;;;;;;7302039;19;20727;-75
2023/07/10 02:01:50;;;;;;;14.20;3.03;;;19.30;99.90;;;;;;7282108;19;20261;-76
2023/07/10 02:04:16;;;;;;;9.77;3.00;;;19.30;99.90;;;;;;7281601;19;20180;-76
2023/07/10 02:06:41;;;;;;;8.10;2.93;;;19.30;99.90;;;;;;7281140;19;20634;-76
2023/07/10 02:09:07;;;;;;;11.83;3.70;;;19.40;99.90;;;;;;7281393;19;20187;-76
2023/07/10 02:11:37;;;;;;;10.60;3.17;;;19.40;99.90;;;;;;7281995;19;20195;-76
2023/07/10 02:14:04;;;;;;;11.50;3.70;;;19.40;99.90;;;;;;7279684;19;20308;-76
2023/07/10 02:16:30;;;;;;;10.13;3.27;;;19.30;99.90;;;;;;7279752;19;20202;-76
2023/07/10 02:18:55;;;;;;;10.23;3.47;;;19.20;99.90;;;;;;7287242;19;20194;-76
2023/07/10 02:21:21;;;;;;;13.73;3.70;;;19.10;99.90;;;;;;7302284;19;20180;-76
2023/07/10 02:23:47;;;;;;;9.83;3.70;;;19.10;99.90;;;;;;7281783;19;20650;-76
2023/07/10 02:26:14;;;;;;;10.13;3.53;;;19.20;99.90;;;;;;7279360;19;20642;-76
2023/07/10 02:28:42;;;;;;;7.40;3.00;;;19.20;99.90;;;;;;7277249;19;20200;-76
2023/07/10 02:31:08;;;;;;;7.50;3.57;;;19.10;99.90;;;;;;7278553;19;20232;-76
2023/07/10 02:33:35;;;;;;;8.10;3.33;;;19.10;99.90;;;;;;7279682;19;20188;-76
2023/07/10 02:36:01;;;;;;;10.00;3.37;;;19.00;99.90;;;;;;7280886;19;20185;-76
2023/07/10 02:38:27;;;;;;;8.77;3.40;;;19.00;99.90;;;;;;7281278;19;20199;-76
2023/07/10 02:40:55;;;;;;;11.10;3.60;;;19.00;99.90;;;;;;7301274;19;20250;-76
2023/07/10 02:43:21;;;;;;;9.53;3.63;;;19.00;99.90;;;;;;7297912;19;20191;-77
2023/07/10 02:45:47;;;;;;;10.73;3.40;;;19.00;99.90;;;;;;7280307;19;20204;-77
2023/07/10 02:48:13;;;;;;;8.07;3.57;;;19.00;99.90;;;;;;7279238;19;20192;-77
2023/07/10 02:50:39;;;;;;;10.17;3.50;;;19.00;99.90;;;;;;7280591;19;20195;-76
2023/07/10 02:53:04;;;;;;;13.93;4.13;;;19.10;99.90;;;;;;7279425;19;20292;-76
2023/07/10 02:55:30;;;;;;;10.17;3.77;;;19.00;99.90;;;;;;7279706;19;20203;-76
2023/07/10 02:57:56;;;;;;;9.57;3.70;;;18.80;99.90;;;;;;7279706;19;20250;-76
2023/07/10 03:00:22;;;;;;;11.67;4.20;;;18.70;99.90;;;;;;7301259;19;20667;-77
2023/07/10 03:02:47;;;;;;;12.40;4.60;;;18.70;99.90;;;;;;7279067;19;20209;-77
2023/07/10 03:05:13;;;;;;;13.17;4.00;;;18.60;99.90;;;;;;7280284;19;20185;-77
2023/07/10 03:07:39;;;;;;;10.87;4.07;;;18.60;99.90;;;;;;7280004;19;20213;-76
2023/07/10 03:10:06;;;;;;;10.63;3.90;;;18.50;99.90;;;;;;7279683;19;20190;-77
2023/07/10 03:12:32;;;;;;;10.40;4.00;;;18.30;99.90;;;;;;7280354;19;20681;-76
2023/07/10 03:14:58;;;;;;;14.50;4.40;;;18.30;99.90;;;;;;7280321;19;20181;-76
2023/07/10 03:17:23;;;;;;;13.27;4.10;;;18.20;99.90;;;;;;7301960;19;20665;-77
2023/07/10 03:19:50;;;;;;;10.40;4.30;;;18.20;99.90;;;;;;7281423;19;20302;-77
2023/07/10 03:22:16;;;;;;;15.57;4.60;;;18.10;99.90;;;;;;7280156;19;20301;-77
2023/07/10 03:24:42;;;;;;;8.97;4.20;;;18.20;99.90;;;;;;7277212;19;20184;-76
2023/07/10 03:27:08;;;;;;;10.80;4.03;;;18.20;99.90;;;;;;7283677;19;20194;-77
2023/07/10 03:29:36;;;;;;;18.07;4.97;;;18.30;99.90;;;;;;7283753;19;20190;-77
2023/07/10 03:32:02;;;;;;;13.13;4.60;;;18.30;99.90;;;;;;7284387;19;20587;-77
2023/07/10 03:34:28;;;;;;;9.10;4.00;;;18.30;99.90;;;;;;7284575;19;20182;-77
2023/07/10 03:36:53;;;;;;;11.37;4.00;;;18.20;99.90;;;;;;7305882;19;20322;-77
2023/07/10 03:39:19;;;;;;;9.07;3.90;;;18.20;99.90;;;;;;7280895;19;20188;-77
2023/07/10 03:41:45;;;;;;;11.53;4.20;;;18.20;99.90;;;;;;7282459;19;20269;-76
2023/07/10 03:44:10;;;;;;;14.77;4.30;;;18.30;99.90;;;;;;7281921;19;20558;-77
2023/07/10 03:46:36;;;;;;;14.20;4.87;;;18.40;99.90;;;;;;7281043;19;20531;-76
2023/07/10 03:49:03;;;;;;;10.23;4.20;;;18.30;99.90;;;;;;7279915;19;20188;-76
2023/07/10 03:51:28;;;;;;;9.27;4.17;;;18.30;99.90;;;;;;7280874;19;20224;-77
2023/07/10 03:53:54;;;;;;;11.63;4.30;;;18.30;99.90;;;;;;7300711;19;20193;-76
2023/07/10 03:56:20;;;;;;;10.90;3.80;;;18.20;99.90;;;;;;7279095;19;20189;-77
2023/07/10 03:58:46;;;;;;;10.23;4.47;;;18.20;99.90;;;;;;7278311;19;20784;-76
2023/07/10 04:01:12;;;;;;;11.17;4.33;;;18.20;99.90;;;;;;7278937;19;20213;-76
2023/07/10 04:03:39;;;;;;;12.27;4.00;;;18.20;99.90;;;;;;7277003;19;20656;-77
2023/07/10 04:06:07;;;;;;;9.43;3.87;;;18.20;99.90;;;;;;7279321;19;20185;-76
2023/07/10 04:08:37;;;;;;;12.37;4.67;;;18.20;99.90;;;;;;7278732;19;20198;-76
2023/07/10 04:11:06;;;;;;;16.40;4.63;;;18.30;99.90;;;;;;7276743;19;20193;-77
2023/07/10 04:13:32;;;;;;;10.40;4.17;;;18.30;99.90;;;;;;7278664;19;20192;-76
2023/07/10 04:16:02;;;;;;;13.43;4.60;;;18.30;99.90;;;;;;7278826;19;20203;-76
2023/07/10 04:18:34;;;;;;;12.60;4.40;;;18.30;99.90;;;;;;7277656;19;20189;-77
2023/07/10 04:21:05;;;;;;;11.10;3.90;;;18.30;99.90;;;;;;7276965;19;20200;-76
2023/07/10 04:23:30;;;;;;;10.63;4.10;;;18.20;99.90;;;;;;7277471;19;20261;-76
2023/07/10 04:25:56;;;;;;;11.80;4.40;;;18.20;99.90;;;;;;7279110;19;20227;-77
2023/07/10 04:28:22;;;;;;;13.13;4.30;;;18.10;99.90;;;;;;7297974;19;20186;-77
2023/07/10 04:30:48;;;;;;;10.10;4.80;;;18.20;99.90;;;;;;7277797;19;20189;-77
2023/07/10 04:33:15;;;;;;;9.20;4.10;;;18.30;99.90;;;;;;7277085;19;20189;-77
2023/07/10 04:35:41;;;;;;;12.67;4.20;;;18.40;99.90;;;;;;7276765;19;20650;-76
2023/07/10 04:38:07;;;;;;;10.37;3.90;;;18.60;99.90;;;;;;7275363;19;20200;-76
2023/07/10 04:40:34;;;;;;;11.47;3.87;;;18.80;99.90;;;;;;7276792;19;20288;-76
2023/07/10 04:43:01;;;;;;;12.43;4.43;;;19.30;99.90;;;;;;7277136;19;20214;-76
2023/07/10 04:45:27;;;;;;;10.53;3.80;;;20.20;99.90;;;;;;7278326;19;20183;-77
2023/07/10 04:47:53;;;;;;;10.87;3.40;;;21.10;99.90;;;;;;7299402;19;20707;-76
2023/07/10 04:50:18;;;;;;;10.17;3.37;;;21.90;99.90;;;;;;7280079;19;20212;-76
2023/07/10 04:52:44;;;;;;;12.13;3.23;;;22.70;99.90;;;;;;7282805;19;21193;-77
2023/07/10 04:55:10;;;;;;;9.87;2.87;;;23.40;99.90;;;;;;7284286;19;20184;-77
2023/07/10 04:57:35;;;;;;;8.57;2.77;;;24.00;99.90;;;;;;7285144;19;20181;-77
2023/07/10 05:00:01;;;;;;;8.50;3.13;;;24.60;99.90;;;;;;7284394;19;20181;-77
2023/07/10 05:02:27;;;;;;;11.05;3.05;;;25.20;99.90;;;;;;7284698;19;20189;-77
2023/07/10 05:04:52;;;;;;;10.30;2.92;;;25.90;99.90;;;;;;7305075;19;20189;-77
2023/07/10 05:07:18;;;;;;;8.95;3.05;;;26.50;99.90;;;;;;7284879;19;20767;-77
2023/07/10 05:09:44;;;;;;;7.43;2.47;;;27.30;99.90;;;;;;7282438;19;20185;-77
2023/07/10 05:12:09;;;;;;;6.07;2.63;;;28.30;99.90;;;;;;7283164;19;20184;-77
2023/07/10 05:14:35;;;;;;;7.22;2.72;;;29.10;99.90;;;;;;7282653;19;20181;-77
2023/07/10 05:17:01;;;;;;;10.13;2.53;;;29.60;99.90;;;;;;7283444;19;20189;-77
2023/07/10 05:19:26;;;;;;;8.23;3.30;;;30.10;99.90;;;;;;7285931;19;20676;-82
2023/07/10 05:21:52;;;;;;;11.57;3.58;;;30.80;99.90;;;;;;7306004;19;20185;-82
2023/07/10 05:24:18;;;;;;;7.85;3.17;;;31.10;99.90;;;;;;7284322;19;20191;-81
2023/07/10 05:26:43;;;;;;;10.52;3.70;;;31.40;99.90;;;;;;7282789;19;20208;-81
2023/07/10 05:29:09;;;;;;;11.00;3.83;;;31.40;99.90;;;;;;7285675;19;20197;-81
2023/07/10 05:31:35;;;;;;;10.35;3.50;;;31.30;99.90;;;;;;7283926;19;20264;-79
2023/07/10 05:34:00;;;;;;;11.27;3.65;;;32.00;99.90;;;;;;7283174;19;20193;-81
2023/07/10 05:36:26;;;;;;;12.55;3.85;;;32.30;99.90;;;;;;7290287;19;20188;-81
2023/07/10 05:38:52;;;;;;;12.23;3.33;;;32.70;99.90;;;;;;7306202;19;20221;-81
2023/07/10 05:41:19;;;;;;;11.23;3.50;;;32.70;99.90;;;;;;7283432;19;20177;-81
2023/07/10 05:43:46;;;;;;;10.88;3.65;;;32.70;99.90;;;;;;7285084;19;20201;-81
2023/07/10 05:46:12;;;;;;;12.55;3.45;;;32.90;99.90;;;;;;7283410;19;20192;-82
2023/07/10 05:48:38;;;;;;;8.93;2.90;;;33.20;99.90;;;;;;7284621;19;20192;-82
2023/07/10 05:51:04;;;;;;;7.60;3.05;;;33.60;99.90;;;;;;7283836;19;20459;-81
2023/07/10 05:53:33;;;;;;;9.82;3.38;;;33.80;99.90;;;;;;7284145;19;20208;-81
2023/07/10 05:56:00;;;;;;;9.27;3.00;;;33.80;99.90;;;;;;7283346;19;20187;-81
2023/07/10 05:58:28;;;;;;;9.10;3.33;;;33.90;99.90;;;;;;7296434;19;20181;-81
2023/07/10 06:00:57;;;;;;;10.60;3.13;;;34.10;99.50;;;;;;7303903;19;20188;-81
2023/07/10 06:03:24;;;;;;;9.25;2.85;;;34.30;98.40;;;;;;7280132;19;20234;-81
2023/07/10 06:05:58;;;;;;;10.93;3.08;;;34.40;98.60;;;;;;7281935;19;20189;-82
2023/07/10 06:08:25;;;;;;;11.13;3.20;;;34.80;96.90;;;;;;7282835;19;20184;-81
2023/07/10 06:10:51;;;;;;;8.18;2.80;;;34.70;96.00;;;;;;7281723;19;20625;-81
2023/07/10 06:13:17;;;;;;;9.95;3.10;;;34.70;95.60;;;;;;7281104;19;20201;-81
2023/07/10 06:15:48;;;;;;;11.07;3.10;;;34.80;96.10;;;;;;7282362;19;20199;-82
2023/07/10 06:18:14;;;;;;;11.35;3.08;;;35.20;94.90;;;;;;7282808;19;20547;-81
2023/07/10 06:20:40;;;;;;;8.95;2.90;;;35.40;93.10;;;;;;7283319;19;20319;-82
2023/07/10 06:23:06;;;;;;;9.50;3.25;;;35.10;92.70;;;;;;7282910;19;20197;-82
2023/07/10 06:25:32;;;;;;;12.98;3.40;;;35.00;92.80;;;;;;7282566;19;20185;-81
2023/07/10 06:27:57;;;;;;;9.35;3.08;;;34.70;92.50;;;;;;7283839;19;20604;-80
2023/07/10 06:30:23;;;;;;;8.48;2.28;;;34.40;92.00;;;;;;7304213;19;20265;-81
2023/07/10 06:32:50;;;;;;;11.27;2.38;;;34.30;92.10;;;;;;7282560;19;20189;-83
2023/07/10 06:35:15;;;;;;;8.50;2.60;;;34.50;91.80;;;;;;7281743;19;20202;-82
2023/07/10 06:37:42;;;;;;;7.75;2.40;;;34.80;91.50;;;;;;7281807;19;20519;-82
2023/07/10 06:40:09;;;;;;;8.85;2.08;;;34.90;90.30;;;;;;7281349;19;20663;-82
2023/07/10 06:42:36;;;;;;;10.15;2.40;;;35.00;89.60;;;;;;7281446;19;20193;-82
2023/07/10 06:45:02;;;;;;;13.80;2.60;;;35.20;90.10;;;;;;7281862;19;20610;-82
2023/07/10 06:47:31;;;;;;;7.07;2.05;;;35.30;89.80;;;;;;7282765;19;20193;-81
2023/07/10 06:49:58;;;;;;;9.60;2.30;;;34.90;88.30;;;;;;7281912;19;20193;-81
2023/07/10 06:52:23;;;;;;;6.38;2.13;;;34.50;88.50;;;;;;7303513;19;20246;-82
2023/07/10 06:54:49;;;;;;;8.05;2.40;;;34.50;88.30;;;;;;7283603;19;20193;-82
2023/07/10 06:57:15;;;;;;;8.65;2.20;;;34.50;86.90;;;;;;7281943;19;20194;-82
2023/07/10 06:59:40;;;;;;;5.53;1.98;;;34.60;87.00;;;;;;7282750;19;20193;-83
2023/07/10 07:02:06;;;;;;;7.30;2.00;;;34.60;87.60;;;;;;7281531;19;20212;-82
2023/07/10 07:04:32;;;;;;;9.43;2.00;;;34.70;85.80;;;;;;7281468;19;20192;-82
2023/07/10 07:06:58;;;;;;;5.85;1.70;;;34.30;87.40;;;;;;7281753;19;20201;-82
2023/07/10 07:09:24;;;;;;;7.43;1.50;;;34.30;86.50;;;;;;7303175;19;20189;-80
2023/07/10 07:11:49;;;;;;;8.13;1.80;;;34.30;85.60;;;;;;7280929;19;20212;-81
2023/07/10 07:14:15;;;;;;;8.05;1.90;;;34.40;84.30;;;;;;7280643;19;20198;-82
2023/07/10 07:16:41;;;;;;;9.02;1.63;;;34.40;86.00;;;;;;7280002;19;20215;-83
2023/07/10 07:19:06;;;;;;;5.75;1.60;;;34.80;86.00;;;;;;7281026;19;20200;-80
2023/07/10 07:21:32;;;;;;;6.75;1.50;;;35.20;85.60;;;;;;7281839;19;20184;-81
2023/07/10 07:23:58;;;;;;;4.38;1.40;;;36.90;82.00;;;;;;7281525;19;20197;-81
2023/07/10 07:26:24;;;;;;;8.93;1.77;;;37.70;79.10;;;;;;7300981;19;20212;-82
2023/07/10 07:28:50;;;;;;;6.70;1.90;;;37.40;76.40;;;;;;7279979;19;20210;-81
2023/07/10 07:31:16;;;;;;;5.45;1.70;;;38.10;75.40;;;;;;7281573;19;20293;-81
2023/07/10 07:33:42;;;;;;;5.95;1.58;;;38.50;72.90;;;;;;7280792;19;20619;-81
2023/07/10 07:36:08;;;;;;;6.13;1.95;;;38.70;71.20;;;;;;7281305;19;20256;-81
2023/07/10 07:38:34;;;;;;;5.85;1.40;;;39.50;71.20;;;;;;7280376;19;20911;-82
2023/07/10 07:41:00;;;;;;;5.47;1.60;;;40.30;68.30;;;;;;7279461;19;20223;-82
2023/07/10 07:43:26;;;;;;;8.05;1.80;;;39.30;68.80;;;;;;7296150;19;20192;-80
2023/07/10 07:45:53;;;;;;;3.20;1.23;;;39.60;65.70;;;;;;7294895;19;20185;-82
2023/07/10 07:48:19;;;;;;;6.00;1.60;;;40.30;64.40;;;;;;7280569;19;20188;-82
2023/07/10 07:50:59;;;;;;;5.38;1.50;;;41.50;63.50;;;;;;7280430;19;20201;-82
2023/07/10 07:53:26;;;;;;;7.30;1.75;;;41.70;59.70;;;;;;7275653;19;20221;-79
2023/07/10 07:55:52;;;;;;;6.93;2.03;;;40.20;62.30;;;;;;7300672;19;20214;-81
2023/07/10 07:58:17;;;;;;;11.50;2.00;;;41.00;60.60;;;;;;7280540;19;20192;-81
2023/07/10 08:00:43;;;;;;;5.95;1.80;;;41.00;61.30;;;;;;7280233;19;20656;-83
2023/07/10 08:03:10;;;;;;;5.15;1.67;;;41.40;59.10;;;;;;7277614;19;20573;-81
2023/07/10 08:05:36;;;;;;;6.32;1.40;;;41.50;59.30;;;;;;7278139;19;20197;-81
2023/07/10 08:08:07;;;;;;;5.05;1.50;;;41.60;57.50;;;;;;7279311;19;20205;-81
2023/07/10 08:10:39;;;;;;;4.28;1.30;;;41.60;58.60;;;;;;7280108;19;20652;-81
2023/07/10 08:13:05;;;;;;;4.20;1.30;;;42.60;57.00;;;;;;7279666;19;20185;-82
2023/07/10 08:15:31;;;;;;;5.22;1.23;;;42.80;55.60;;;;;;7277791;19;20558;-81
2023/07/10 08:17:57;;;;;;;3.83;1.30;;;42.10;55.60;;;;;;7279258;19;20198;-80
2023/07/10 08:20:23;;;;;;;5.03;1.20;;;41.90;55.40;;;;;;7300558;19;20176;-81
2023/07/10 08:22:49;;;;;;;5.45;1.50;;;41.80;54.90;;;;;;7277967;19;20177;-81
2023/07/10 08:25:14;;;;;;;4.63;1.10;;;41.00;54.60;;;;;;7278925;19;20185;-82
2023/07/10 08:27:41;;;;;;;4.20;1.48;;;38.90;57.10;;;;;;7280271;19;20185;-81
2023/07/10 08:30:08;;;;;;;9.07;1.67;;;39.30;57.10;;;;;;7284207;19;20215;-81
2023/07/10 08:32:33;;;;;;;4.82;1.25;;;40.10;56.20;;;;;;7284194;19;20707;-81
2023/07/10 08:34:59;;;;;;;5.35;1.40;;;40.50;56.20;;;;;;7284360;19;20285;-81
2023/07/10 08:37:25;;;;;;;6.10;1.08;;;41.60;55.10;;;;;;7305876;19;20597;-77
2023/07/10 08:39:51;;;;;;;5.25;1.42;;;41.60;53.80;;;;;;7293825;19;20200;-81
2023/07/10 08:42:24;;;;;;;4.25;1.40;;;41.70;54.20;;;;;;7286110;19;20261;-82
2023/07/10 08:44:51;;;;;;;5.68;1.27;;;41.10;54.50;;;;;;7286307;19;20188;-81
2023/07/10 08:47:43;;;;;;;5.05;1.20;;;40.50;54.30;;;;;;7284150;19;20213;-82
2023/07/10 08:50:20;;;;;;;8.35;1.42;;;40.90;53.90;;;;;;7183365;19;2004745;-82
2023/07/10 08:53:10;;;;;;;7.82;1.50;;;41.70;53.50;;;;;;7285542;19;20177;-82
2023/07/10 08:55:56;;;;;;;5.80;1.35;;;41.10;52.60;;;;;;7183108;19;2005013;-82
2023/07/10 08:58:25;;;;;;;5.40;1.52;;;40.50;53.40;;;;;;7284314;19;20303;-82
2023/07/10 09:00:56;;;;;;;5.55;1.60;;;41.40;52.60;;;;;;7285861;19;20644;-82
2023/07/10 09:03:43;;;;;;;4.10;1.23;;;42.20;52.60;;;;;;7283968;19;20189;-82
2023/07/10 09:06:18;;;;;;;5.90;1.20;;;42.80;52.50;;;;;;7183163;19;2004782;-82
2023/07/10 09:08:51;;;;;;;6.95;1.13;;;43.10;50.20;;;;;;7285920;19;20192;-82
2023/07/10 09:11:18;;;;;;;3.55;1.17;;;42.50;49.80;;;;;;7286673;19;20189;-82
2023/07/10 09:13:51;;;;;;;7.70;1.30;;;42.00;50.20;;;;;;7285630;19;20268;-82
2023/07/10 09:16:20;;;;;;;5.60;1.50;;;42.50;50.70;;;;;;7282839;19;20222;-82
2023/07/10 09:19:09;;;;;;;4.07;1.30;;;42.40;51.50;;;;;;7282828;19;20215;-82
2023/07/10 09:21:37;;;;;;;5.22;1.40;;;43.30;51.60;;;;;;7181408;19;2005041;-82
2023/07/10 09:24:04;;;;;;;5.15;1.33;;;44.10;49.10;;;;;;7283356;19;20197;-82
2023/07/10 09:26:33;;;;;;;5.03;1.33;;;43.70;49.50;;;;;;7281690;19;20691;-83
2023/07/10 09:29:11;;;;;;;6.97;1.52;;;43.90;50.00;;;;;;7283406;19;20192;-82
2023/07/10 09:31:53;;;;;;;5.70;1.48;;;43.60;50.30;;;;;;7283773;19;20664;-82
2023/07/10 09:34:43;;;;;;;5.97;1.30;;;43.40;48.80;;;;;;7283097;19;20747;-82
2023/07/10 09:37:13;;;;;;;5.20;1.40;;;43.10;48.80;;;;;;7179796;19;2005099;-82
2023/07/10 09:39:39;;;;;;;6.25;1.63;;;42.70;47.50;;;;;;7283853;19;20569;-82
2023/07/10 09:42:17;;;;;;;5.97;1.20;;;41.80;47.80;;;;;;7282927;19;20177;-82
2023/07/10 09:44:50;;;;;;;4.75;1.10;;;41.80;50.00;;;;;;7283115;19;20188;-82
2023/07/10 09:47:17;;;;;;;4.97;1.50;;;41.60;50.50;;;;;;7283616;19;20205;-82
2023/07/10 09:49:55;;;;;;;5.55;1.33;;;42.30;49.30;;;;;;7282138;19;20181;-82
2023/07/10 09:52:27;;;;;;;4.53;1.40;;;42.30;49.90;;;;;;7284300;19;20678;-82
2023/07/10 09:54:59;;;;;;;4.93;1.52;;;42.90;50.30;;;;;;7278909;19;20271;-82
2023/07/10 09:57:25;;;;;;;4.95;1.33;;;43.60;49.40;;;;;;7284715;19;20181;-82
2023/07/10 09:59:53;;;;;;;4.40;1.30;;;44.50;48.00;;;;;;7284030;19;20672;-82
2023/07/10 10:02:22;;;;;;;3.50;1.13;;;45.50;47.30;;;;;;7282027;19;20813;-82
2023/07/10 10:05:14;;;;;;;5.55;1.25;;;44.70;47.10;;;;;;7283432;19;20188;-82
2023/07/10 10:07:43;;;;;;;6.55;1.52;;;44.50;46.80;;;;;;7181471;19;2005152;-82
2023/07/10 10:10:33;;;;;;;6.47;1.80;;;44.30;48.90;;;;;;7283186;19;20204;-82
2023/07/10 10:13:23;;;;;;;7.20;2.00;;;43.90;47.10;;;;;;7260893;19;20185;-82
2023/07/10 10:16:06;;;;;;;7.15;2.08;;;42.90;48.40;;;;;;7282779;19;20213;-83
2023/07/10 10:19:00;;;;;;;6.93;1.58;;;42.50;48.30;;;;;;7179417;19;2004595;-82
2023/07/10 10:21:29;;;;;;;5.68;1.70;;;42.40;48.40;;;;;;7276024;19;20656;-81
2023/07/10 10:24:04;;;;;;;6.90;1.70;;;43.30;48.40;;;;;;7306292;19;20189;-82
2023/07/10 10:26:42;;;;;;;5.80;2.05;;;42.30;49.60;;;;;;7260391;19;20221;-81
2023/07/10 10:29:29;;;;;;;5.40;1.70;;;40.70;50.90;;;;;;7281487;19;20201;-82
2023/07/10 10:32:08;;;;;;;7.35;2.20;;;38.70;52.30;;;;;;7282838;19;20215;-82
2023/07/10 10:34:59;;;;;;;5.65;2.03;;;38.30;53.50;;;;;;7179517;19;2004557;-82
2023/07/10 10:37:49;;;;;;;8.40;2.40;;;37.40;55.50;;;;;;7283344;19;20245;-82
2023/07/10 10:40:30;;;;;;;6.95;1.98;;;36.80;55.60;;;;;;7178217;19;2004498;-81
2023/07/10 10:43:24;;;;;;;8.18;2.00;;;38.60;55.00;;;;;;7279144;19;20183;-79
2023/07/10 10:45:55;;;;;;;6.75;2.17;;;37.90;55.10;;;;;;7281765;19;20675;-82
2023/07/10 10:48:31;;;;;;;6.38;1.80;;;35.50;56.80;;;;;;7282967;19;20189;-82
2023/07/10 10:51:22;;;;;;;7.25;2.15;;;34.50;58.40;;;;;;7258589;19;20252;-81
2023/07/10 10:54:32;;;;;;;5.50;1.80;;;35.20;58.80;;;;;;7280572;19;20210;-81
2023/07/10 10:57:10;;;;;;;6.10;1.83;;;37.80;59.10;;;;;;7157744;19;2004430;-80
2023/07/10 11:00:06;;;;;;;5.53;1.60;;;38.00;55.10;;;;;;7281501;19;20621;-81
2023/07/10 11:02:40;;;;;;;8.15;2.30;;;36.70;55.90;;;;;;7177656;19;2005190;-81
2023/07/10 11:05:20;;;;;;;7.25;2.25;;;35.40;59.30;;;;;;7279229;19;20196;-81
2023/07/10 11:07:52;;;;;;;5.57;2.10;;;35.90;59.60;;;;;;7281706;19;20551;-82
2023/07/10 11:10:32;;;;;;;5.82;1.77;;;38.10;58.40;;;;;;7282042;19;20223;-82
2023/07/10 11:12:58;;;;;;;9.27;1.90;;;39.60;55.00;;;;;;7259834;19;20184;-81
2023/07/10 11:15:26;;;;;;;6.93;1.90;;;40.50;53.20;;;;;;7303177;19;20919;-81
2023/07/10 11:17:53;;;;;;;7.05;1.80;;;40.60;51.80;;;;;;7280420;19;20632;-81
2023/07/10 11:20:22;;;;;;;6.22;1.77;;;40.60;52.50;;;;;;7279854;19;20196;-82
2023/07/10 11:22:51;;;;;;;6.63;2.10;;;41.80;52.60;;;;;;7280494;19;20202;-83
2023/07/10 11:25:44;;;;;;;5.50;1.50;;;43.20;52.60;;;;;;7279970;19;20181;-82
2023/07/10 11:28:25;;;;;;;5.40;1.73;;;43.00;52.20;;;;;;7177103;19;2004879;-82
2023/07/10 11:31:19;;;;;;;5.40;1.88;;;39.80;53.40;;;;;;7280700;19;20181;-82
2023/07/10 11:33:52;;;;;;;5.85;1.67;;;41.20;52.70;;;;;;7176919;19;2004811;-82
2023/07/10 11:36:24;;;;;;;7.30;1.98;;;42.30;53.50;;;;;;7279693;19;20220;-82
2023/07/10 11:39:11;;;;;;;5.05;1.98;;;41.70;51.60;;;;;;7279229;19;20184;-81
2023/07/10 11:42:02;;;;;;;7.25;1.80;;;42.60;52.20;;;;;;7176286;19;2006209;-81
2023/07/10 11:44:28;;;;;;;5.32;1.65;;;42.90;50.20;;;;;;7258597;19;20204;-81
2023/07/10 11:46:57;;;;;;;7.38;1.70;;;42.60;50.80;;;;;;7299786;19;20544;-83
2023/07/10 11:49:33;;;;;;;7.05;1.90;;;43.40;50.10;;;;;;7280389;19;20199;-82
2023/07/10 11:52:10;;;;;;;5.90;1.67;;;43.60;50.10;;;;;;7258654;19;20192;-81
2023/07/10 11:55:10;;;;;;;5.03;1.60;;;42.70;49.20;;;;;;7280464;19;20184;-82
2023/07/10 11:57:37;;;;;;;5.57;1.67;;;41.00;51.30;;;;;;7176695;19;2004788;-82
2023/07/10 12:00:14;;;;;;;6.50;1.80;;;41.10;51.30;;;;;;7278599;19;20181;-82
2023/07/10 12:02:44;;;;;;;8.20;1.90;;;40.30;51.30;;;;;;7282267;19;20624;-82
2023/07/10 12:05:22;;;;;;;6.38;1.80;;;38.80;51.20;;;;;;7286451;19;20188;-82
2023/07/10 12:07:58;;;;;;;6.85;1.77;;;37.50;53.40;;;;;;7286879;19;20188;-82
2023/07/10 12:10:26;;;;;;;6.72;1.90;;;36.50;55.40;;;;;;7285877;19;20188;-82
2023/07/10 12:12:52;;;;;;;5.55;1.63;;;36.10;57.60;;;;;;7287025;19;20703;-82
2023/07/10 12:15:19;;;;;;;9.38;2.05;;;35.80;55.70;;;;;;7286560;19;20249;-82
2023/07/10 12:17:45;;;;;;;5.80;1.77;;;34.70;56.80;;;;;;7285708;19;20543;-83
2023/07/10 12:20:31;;;;;;;7.60;1.90;;;34.50;58.90;;;;;;7286396;19;20200;-82
2023/07/10 12:23:10;;;;;;;6.30;1.70;;;34.40;59.80;;;;;;7268498;19;20189;-82
2023/07/10 12:25:36;;;;;;;7.68;2.05;;;34.40;59.90;;;;;;7286328;19;20207;-82
2023/07/10 12:28:09;;;;;;;5.97;1.50;;;34.00;59.70;;;;;;7284968;19;20193;-82
2023/07/10 12:30:38;;;;;;;7.63;2.05;;;33.90;59.30;;;;;;7286136;19;20268;-82
2023/07/10 12:33:22;;;;;;;5.45;1.55;;;33.90;62.30;;;;;;7285661;19;20209;-82
2023/07/10 12:35:47;;;;;;;7.65;1.60;;;33.70;59.50;;;;;;7286630;19;20211;-82
2023/07/10 12:38:13;;;;;;;4.95;1.92;;;33.60;59.80;;;;;;7286387;19;20193;-82
2023/07/10 12:40:40;;;;;;;5.53;1.77;;;33.60;58.00;;;;;;7286518;19;20196;-82
2023/07/10 12:43:13;;;;;;;4.57;1.50;;;33.20;58.30;;;;;;7286533;19;20199;-82
2023/07/10 12:45:39;;;;;;;3.92;1.52;;;33.10;60.60;;;;;;7287690;19;20212;-82
2023/07/10 12:48:14;;;;;;;5.15;1.65;;;33.00;58.90;;;;;;7310258;19;20251;-82
2023/07/10 12:50:47;;;;;;;9.30;1.90;;;32.90;59.30;;;;;;7309894;19;20203;-82
2023/07/10 12:53:31;;;;;;;4.72;1.67;;;32.00;58.60;;;;;;7306352;19;20230;-82
2023/07/10 12:56:21;;;;;;;5.38;1.55;;;31.90;59.80;;;;;;7286478;19;20247;-81
2023/07/10 12:58:47;;;;;;;5.22;1.65;;;31.80;59.90;;;;;;7302888;19;20202;-82